sensor_id;sensor_type;location;lat;lon;timestamp;temperature;humidity
64924;HTU21D;51436;44.692;39.214;2022-07-01T00:01:11;20.39;69.11
64924;HTU21D;51436;44.692;39.214;2022-07-01T00:03:38;20.37;69.10
64924;HTU21D;51436;44.692;39.214;2022-07-01T00:06:04;20.34;69.15
64924;HTU21D;51436;44.692;39.214;2022-07-01T00:08:31;20.35;69.17
64924;HTU21D;51436;44.692;39.214;2022-07-01T00:10:57;20.33;69.23
64924;HTU21D;51436;44.692;39.214;2022-07-01T00:13:33;20.29;69.13
64924;HTU21D;51436;44.692;39.214;2022-07-01T00:16:00;20.26;69.29
64924;HTU21D;51436;44.692;39.214;2022-07-01T00:18:26;20.25;69.23
64924;HTU21D;51436;44.692;39.214;2022-07-01T00:20:53;20.24;69.20
64924;HTU21D;51436;44.692;39.214;2022-07-01T00:23:19;20.20;69.29
64924;HTU21D;51436;44.692;39.214;2022-07-01T00:25:46;20.18;69.27
64924;HTU21D;51436;44.692;39.214;2022-07-01T00:28:13;20.19;69.16
64924;HTU21D;51436;44.692;39.214;2022-07-01T00:30:40;20.18;69.06
64924;HTU21D;51436;44.692;39.214;2022-07-01T00:33:06;20.16;69.04
64924;HTU21D;51436;44.692;39.214;2022-07-01T00:35:33;20.10;69.18
64924;HTU21D;51436;44.692;39.214;2022-07-01T00:38:00;20.09;69.16
64924;HTU21D;51436;44.692;39.214;2022-07-01T00:40:26;20.09;69.06
64924;HTU21D;51436;44.692;39.214;2022-07-01T00:42:53;20.07;69.03
64924;HTU21D;51436;44.692;39.214;2022-07-01T00:45:20;20.03;69.09
64924;HTU21D;51436;44.692;39.214;2022-07-01T00:47:47;20.02;69.06
64924;HTU21D;51436;44.692;39.214;2022-07-01T00:50:16;20.02;69.07
64924;HTU21D;51436;44.692;39.214;2022-07-01T00:52:44;20.01;69.04
64924;HTU21D;51436;44.692;39.214;2022-07-01T00:55:13;19.97;69.08
64924;HTU21D;51436;44.692;39.214;2022-07-01T00:57:41;19.94;69.13
64924;HTU21D;51436;44.692;39.214;2022-07-01T01:02:37;19.89;69.13
64924;HTU21D;51436;44.692;39.214;2022-07-01T01:05:05;19.89;69.10
64924;HTU21D;51436;44.692;39.214;2022-07-01T01:07:32;19.87;69.11
64924;HTU21D;51436;44.692;39.214;2022-07-01T01:10:00;19.86;69.20
64924;HTU21D;51436;44.692;39.214;2022-07-01T01:12:30;19.82;69.34
64924;HTU21D;51436;44.692;39.214;2022-07-01T01:14:58;19.79;69.41
64924;HTU21D;51436;44.692;39.214;2022-07-01T01:17:24;19.80;69.33
64924;HTU21D;51436;44.692;39.214;2022-07-01T01:19:51;19.77;69.32
64924;HTU21D;51436;44.692;39.214;2022-07-01T01:22:19;19.74;69.32
64924;HTU21D;51436;44.692;39.214;2022-07-01T01:24:47;19.77;69.20
64924;HTU21D;51436;44.692;39.214;2022-07-01T01:27:14;19.79;69.11
64924;HTU21D;51436;44.692;39.214;2022-07-01T01:29:44;19.77;69.15
64924;HTU21D;51436;44.692;39.214;2022-07-01T01:32:11;19.82;69.09
64924;HTU21D;51436;44.692;39.214;2022-07-01T01:34:38;19.83;69.04
64924;HTU21D;51436;44.692;39.214;2022-07-01T01:37:07;19.84;69.07
64924;HTU21D;51436;44.692;39.214;2022-07-01T01:39:34;19.83;69.14
64924;HTU21D;51436;44.692;39.214;2022-07-01T01:42:06;19.83;68.98
64924;HTU21D;51436;44.692;39.214;2022-07-01T01:44:33;19.83;68.95
64924;HTU21D;51436;44.692;39.214;2022-07-01T01:47:00;19.83;69.02
64924;HTU21D;51436;44.692;39.214;2022-07-01T01:49:27;19.80;69.16
64924;HTU21D;51436;44.692;39.214;2022-07-01T01:51:56;19.76;69.20
64924;HTU21D;51436;44.692;39.214;2022-07-01T01:54:26;19.74;69.34
64924;HTU21D;51436;44.692;39.214;2022-07-01T01:56:52;19.75;69.33
64924;HTU21D;51436;44.692;39.214;2022-07-01T01:59:19;19.75;69.36
64924;HTU21D;51436;44.692;39.214;2022-07-01T02:01:46;19.72;69.42
64924;HTU21D;51436;44.692;39.214;2022-07-01T02:04:13;19.69;69.26
64924;HTU21D;51436;44.692;39.214;2022-07-01T02:06:40;19.67;69.32
64924;HTU21D;51436;44.692;39.214;2022-07-01T02:09:08;19.67;69.39
64924;HTU21D;51436;44.692;39.214;2022-07-01T02:11:40;19.66;69.31
64924;HTU21D;51436;44.692;39.214;2022-07-01T02:14:06;19.60;69.49
64924;HTU21D;51436;44.692;39.214;2022-07-01T02:16:33;19.58;69.60
64924;HTU21D;51436;44.692;39.214;2022-07-01T02:18:59;19.62;69.58
64924;HTU21D;51436;44.692;39.214;2022-07-01T02:21:26;19.65;69.55
64924;HTU21D;51436;44.692;39.214;2022-07-01T02:23:54;19.68;69.51
64924;HTU21D;51436;44.692;39.214;2022-07-01T02:26:21;19.68;69.55
64924;HTU21D;51436;44.692;39.214;2022-07-01T02:28:48;19.70;69.68
64924;HTU21D;51436;44.692;39.214;2022-07-01T02:31:14;19.72;69.71
64924;HTU21D;51436;44.692;39.214;2022-07-01T02:33:46;19.72;69.82
64924;HTU21D;51436;44.692;39.214;2022-07-01T02:36:13;19.75;69.72
64924;HTU21D;51436;44.692;39.214;2022-07-01T02:38:39;19.82;69.56
64924;HTU21D;51436;44.692;39.214;2022-07-01T02:41:06;19.88;69.48
64924;HTU21D;51436;44.692;39.214;2022-07-01T02:43:33;19.89;69.53
64924;HTU21D;51436;44.692;39.214;2022-07-01T02:45:59;19.89;69.58
64924;HTU21D;51436;44.692;39.214;2022-07-01T02:48:27;19.90;69.63
64924;HTU21D;51436;44.692;39.214;2022-07-01T02:51:03;19.92;69.61
64924;HTU21D;51436;44.692;39.214;2022-07-01T02:53:29;19.96;69.55
64924;HTU21D;51436;44.692;39.214;2022-07-01T02:55:56;20.00;69.50
64924;HTU21D;51436;44.692;39.214;2022-07-01T02:58:24;19.99;69.52
64924;HTU21D;51436;44.692;39.214;2022-07-01T03:00:52;20.01;69.48
64924;HTU21D;51436;44.692;39.214;2022-07-01T03:03:19;20.06;69.39
64924;HTU21D;51436;44.692;39.214;2022-07-01T03:05:47;20.09;69.36
64924;HTU21D;51436;44.692;39.214;2022-07-01T03:08:15;20.11;69.48
64924;HTU21D;51436;44.692;39.214;2022-07-01T03:10:42;20.15;69.41
64924;HTU21D;51436;44.692;39.214;2022-07-01T03:13:08;20.19;69.31
64924;HTU21D;51436;44.692;39.214;2022-07-01T03:15:35;20.25;69.20
64924;HTU21D;51436;44.692;39.214;2022-07-01T03:18:01;20.28;69.17
64924;HTU21D;51436;44.692;39.214;2022-07-01T03:20:28;20.31;69.13
64924;HTU21D;51436;44.692;39.214;2022-07-01T03:22:54;20.34;69.06
64924;HTU21D;51436;44.692;39.214;2022-07-01T03:25:21;20.39;69.07
64924;HTU21D;51436;44.692;39.214;2022-07-01T03:27:48;20.42;69.10
64924;HTU21D;51436;44.692;39.214;2022-07-01T03:30:15;20.45;69.09
64924;HTU21D;51436;44.692;39.214;2022-07-01T03:32:41;20.47;69.04
64924;HTU21D;51436;44.692;39.214;2022-07-01T03:35:08;20.46;69.20
64924;HTU21D;51436;44.692;39.214;2022-07-01T03:37:55;20.47;69.26
64924;HTU21D;51436;44.692;39.214;2022-07-01T03:40:21;20.48;69.34
64924;HTU21D;51436;44.692;39.214;2022-07-01T03:42:48;20.54;69.21
64924;HTU21D;51436;44.692;39.214;2022-07-01T03:45:15;20.58;69.13
64924;HTU21D;51436;44.692;39.214;2022-07-01T03:48:00;20.68;68.87
64924;HTU21D;51436;44.692;39.214;2022-07-01T03:50:26;20.73;68.80
64924;HTU21D;51436;44.692;39.214;2022-07-01T03:52:54;20.75;68.79
64924;HTU21D;51436;44.692;39.214;2022-07-01T03:55:39;20.77;68.85
64924;HTU21D;51436;44.692;39.214;2022-07-01T03:58:06;20.84;68.80
64924;HTU21D;51436;44.692;39.214;2022-07-01T04:00:34;20.84;68.75
64924;HTU21D;51436;44.692;39.214;2022-07-01T04:03:03;20.83;68.77
64924;HTU21D;51436;44.692;39.214;2022-07-01T04:05:31;20.80;68.84
64924;HTU21D;51436;44.692;39.214;2022-07-01T04:07:58;20.81;68.85
64924;HTU21D;51436;44.692;39.214;2022-07-01T04:10:25;20.90;68.58
64924;HTU21D;51436;44.692;39.214;2022-07-01T04:12:51;21.02;68.24
64924;HTU21D;51436;44.692;39.214;2022-07-01T04:15:18;21.34;67.40
64924;HTU21D;51436;44.692;39.214;2022-07-01T04:17:45;21.75;66.35
64924;HTU21D;51436;44.692;39.214;2022-07-01T04:20:11;22.09;65.48
64924;HTU21D;51436;44.692;39.214;2022-07-01T04:22:38;22.37;64.88
64924;HTU21D;51436;44.692;39.214;2022-07-01T04:25:05;22.64;64.21
64924;HTU21D;51436;44.692;39.214;2022-07-01T04:27:33;22.88;63.77
64924;HTU21D;51436;44.692;39.214;2022-07-01T04:30:00;23.10;63.44
64924;HTU21D;51436;44.692;39.214;2022-07-01T04:32:29;23.31;62.96
64924;HTU21D;51436;44.692;39.214;2022-07-01T04:34:56;23.53;62.59
64924;HTU21D;51436;44.692;39.214;2022-07-01T04:37:23;23.66;62.25
64924;HTU21D;51436;44.692;39.214;2022-07-01T04:39:50;23.84;62.02
64924;HTU21D;51436;44.692;39.214;2022-07-01T04:42:16;24.01;61.63
64924;HTU21D;51436;44.692;39.214;2022-07-01T04:45:01;24.21;61.38
64924;HTU21D;51436;44.692;39.214;2022-07-01T04:47:28;24.36;61.08
64924;HTU21D;51436;44.692;39.214;2022-07-01T04:50:04;24.49;60.51
64924;HTU21D;51436;44.692;39.214;2022-07-01T04:52:31;24.53;60.31
64924;HTU21D;51436;44.692;39.214;2022-07-01T04:54:57;24.42;60.54
64924;HTU21D;51436;44.692;39.214;2022-07-01T04:57:33;24.34;60.76
64924;HTU21D;51436;44.692;39.214;2022-07-01T05:00:00;24.41;60.70
64924;HTU21D;51436;44.692;39.214;2022-07-01T05:02:26;24.53;60.26
64924;HTU21D;51436;44.692;39.214;2022-07-01T05:04:53;24.63;59.54
64924;HTU21D;51436;44.692;39.214;2022-07-01T05:07:26;24.75;58.94
64924;HTU21D;51436;44.692;39.214;2022-07-01T05:09:56;24.87;58.69
64924;HTU21D;51436;44.692;39.214;2022-07-01T05:12:25;24.98;58.48
64924;HTU21D;51436;44.692;39.214;2022-07-01T05:14:52;25.07;58.27
64924;HTU21D;51436;44.692;39.214;2022-07-01T05:17:18;25.17;57.96
64924;HTU21D;51436;44.692;39.214;2022-07-01T05:19:45;25.29;58.00
64924;HTU21D;51436;44.692;39.214;2022-07-01T05:22:30;25.38;57.64
64924;HTU21D;51436;44.692;39.214;2022-07-01T05:24:59;25.39;57.16
64924;HTU21D;51436;44.692;39.214;2022-07-01T05:27:26;25.39;57.46
64924;HTU21D;51436;44.692;39.214;2022-07-01T05:30:22;25.37;57.19
64924;HTU21D;51436;44.692;39.214;2022-07-01T05:32:48;25.36;56.15
64924;HTU21D;51436;44.692;39.214;2022-07-01T05:35:15;25.28;55.25
64924;HTU21D;51436;44.692;39.214;2022-07-01T05:37:42;25.21;55.36
64924;HTU21D;51436;44.692;39.214;2022-07-01T05:40:27;25.16;55.17
64924;HTU21D;51436;44.692;39.214;2022-07-01T05:45:30;25.20;54.43
64924;HTU21D;51436;44.692;39.214;2022-07-01T05:47:57;25.20;54.32
64924;HTU21D;51436;44.692;39.214;2022-07-01T05:50:26;25.19;54.05
64924;HTU21D;51436;44.692;39.214;2022-07-01T05:52:52;25.10;54.06
64924;HTU21D;51436;44.692;39.214;2022-07-01T05:55:19;25.10;53.97
64924;HTU21D;51436;44.692;39.214;2022-07-01T05:57:45;25.16;53.42
64924;HTU21D;51436;44.692;39.214;2022-07-01T06:00:12;25.22;53.01
64924;HTU21D;51436;44.692;39.214;2022-07-01T06:02:39;25.24;52.65
64924;HTU21D;51436;44.692;39.214;2022-07-01T06:05:06;25.19;52.36
64924;HTU21D;51436;44.692;39.214;2022-07-01T06:07:33;25.10;52.62
64924;HTU21D;51436;44.692;39.214;2022-07-01T06:10:00;25.06;52.76
64924;HTU21D;51436;44.692;39.214;2022-07-01T06:12:26;25.07;52.68
64924;HTU21D;51436;44.692;39.214;2022-07-01T06:14:53;25.09;52.24
64924;HTU21D;51436;44.692;39.214;2022-07-01T06:17:19;25.07;51.62
64924;HTU21D;51436;44.692;39.214;2022-07-01T06:19:46;25.03;51.69
64924;HTU21D;51436;44.692;39.214;2022-07-01T06:22:13;25.02;51.82
64924;HTU21D;51436;44.692;39.214;2022-07-01T06:24:42;25.05;51.95
64924;HTU21D;51436;44.692;39.214;2022-07-01T06:27:11;25.10;51.04
64924;HTU21D;51436;44.692;39.214;2022-07-01T06:29:38;25.10;50.68
64924;HTU21D;51436;44.692;39.214;2022-07-01T06:32:06;25.15;50.46
64924;HTU21D;51436;44.692;39.214;2022-07-01T06:34:35;25.23;50.42
64924;HTU21D;51436;44.692;39.214;2022-07-01T06:37:02;25.29;50.40
64924;HTU21D;51436;44.692;39.214;2022-07-01T06:39:30;25.35;50.26
64924;HTU21D;51436;44.692;39.214;2022-07-01T06:41:56;25.38;50.11
64924;HTU21D;51436;44.692;39.214;2022-07-01T06:44:23;25.45;49.98
64924;HTU21D;51436;44.692;39.214;2022-07-01T06:46:50;25.52;50.85
64924;HTU21D;51436;44.692;39.214;2022-07-01T06:49:16;25.61;51.59
64924;HTU21D;51436;44.692;39.214;2022-07-01T06:51:43;25.74;51.50
64924;HTU21D;51436;44.692;39.214;2022-07-01T06:54:10;25.84;51.75
64924;HTU21D;51436;44.692;39.214;2022-07-01T06:56:44;25.89;51.28
64924;HTU21D;51436;44.692;39.214;2022-07-01T06:59:10;25.94;51.26
64924;HTU21D;51436;44.692;39.214;2022-07-01T07:01:37;26.02;50.63
64924;HTU21D;51436;44.692;39.214;2022-07-01T07:04:24;26.05;50.86
64924;HTU21D;51436;44.692;39.214;2022-07-01T07:06:51;26.09;50.61
64924;HTU21D;51436;44.692;39.214;2022-07-01T07:09:18;26.16;50.26
64924;HTU21D;51436;44.692;39.214;2022-07-01T07:11:45;26.21;50.76
64924;HTU21D;51436;44.692;39.214;2022-07-01T07:14:11;26.21;50.11
64924;HTU21D;51436;44.692;39.214;2022-07-01T07:16:39;26.18;50.05
64924;HTU21D;51436;44.692;39.214;2022-07-01T07:19:06;26.24;50.54
64924;HTU21D;51436;44.692;39.214;2022-07-01T07:21:32;26.34;50.51
64924;HTU21D;51436;44.692;39.214;2022-07-01T07:23:59;26.40;50.74
64924;HTU21D;51436;44.692;39.214;2022-07-01T07:26:26;26.47;50.28
64924;HTU21D;51436;44.692;39.214;2022-07-01T07:28:53;26.50;48.91
64924;HTU21D;51436;44.692;39.214;2022-07-01T07:31:19;26.49;47.51
64924;HTU21D;51436;44.692;39.214;2022-07-01T07:33:46;26.47;47.57
64924;HTU21D;51436;44.692;39.214;2022-07-01T07:36:13;26.49;46.54
64924;HTU21D;51436;44.692;39.214;2022-07-01T07:38:40;26.53;45.54
64924;HTU21D;51436;44.692;39.214;2022-07-01T07:41:06;26.54;45.35
64924;HTU21D;51436;44.692;39.214;2022-07-01T07:43:33;26.57;45.19
64924;HTU21D;51436;44.692;39.214;2022-07-01T07:46:02;26.65;44.87
64924;HTU21D;51436;44.692;39.214;2022-07-01T07:48:29;26.76;45.87
64924;HTU21D;51436;44.692;39.214;2022-07-01T07:50:56;26.84;44.26
64924;HTU21D;51436;44.692;39.214;2022-07-01T07:53:22;26.84;43.99
64924;HTU21D;51436;44.692;39.214;2022-07-01T07:55:49;26.89;44.32
64924;HTU21D;51436;44.692;39.214;2022-07-01T07:58:16;26.92;43.42
64924;HTU21D;51436;44.692;39.214;2022-07-01T08:00:43;26.97;43.48
64924;HTU21D;51436;44.692;39.214;2022-07-01T08:03:10;27.01;43.13
64924;HTU21D;51436;44.692;39.214;2022-07-01T08:05:37;26.98;42.97
64924;HTU21D;51436;44.692;39.214;2022-07-01T08:08:04;26.99;42.22
64924;HTU21D;51436;44.692;39.214;2022-07-01T08:10:32;27.02;41.98
64924;HTU21D;51436;44.692;39.214;2022-07-01T08:12:59;27.05;41.83
64924;HTU21D;51436;44.692;39.214;2022-07-01T08:15:30;27.10;41.44
64924;HTU21D;51436;44.692;39.214;2022-07-01T08:17:57;27.17;41.08
64924;HTU21D;51436;44.692;39.214;2022-07-01T08:20:24;27.26;41.24
64924;HTU21D;51436;44.692;39.214;2022-07-01T08:22:50;27.26;40.69
64924;HTU21D;51436;44.692;39.214;2022-07-01T08:25:17;27.26;40.38
64924;HTU21D;51436;44.692;39.214;2022-07-01T08:27:44;27.30;40.55
64924;HTU21D;51436;44.692;39.214;2022-07-01T08:30:11;27.35;40.05
64924;HTU21D;51436;44.692;39.214;2022-07-01T08:32:38;27.41;39.42
64924;HTU21D;51436;44.692;39.214;2022-07-01T08:35:05;27.44;39.13
64924;HTU21D;51436;44.692;39.214;2022-07-01T08:37:32;27.51;38.26
64924;HTU21D;51436;44.692;39.214;2022-07-01T08:39:59;27.53;37.62
64924;HTU21D;51436;44.692;39.214;2022-07-01T08:42:26;27.54;37.46
64924;HTU21D;51436;44.692;39.214;2022-07-01T08:44:53;27.58;37.54
64924;HTU21D;51436;44.692;39.214;2022-07-01T08:47:19;27.65;37.37
64924;HTU21D;51436;44.692;39.214;2022-07-01T08:49:46;27.70;37.43
64924;HTU21D;51436;44.692;39.214;2022-07-01T08:52:13;27.74;38.24
64924;HTU21D;51436;44.692;39.214;2022-07-01T08:54:40;27.86;37.24
64924;HTU21D;51436;44.692;39.214;2022-07-01T08:57:07;27.96;37.12
64924;HTU21D;51436;44.692;39.214;2022-07-01T08:59:35;28.01;36.31
64924;HTU21D;51436;44.692;39.214;2022-07-01T09:02:03;28.03;35.83
64924;HTU21D;51436;44.692;39.214;2022-07-01T09:04:32;28.05;35.89
64924;HTU21D;51436;44.692;39.214;2022-07-01T09:07:08;28.06;35.44
64924;HTU21D;51436;44.692;39.214;2022-07-01T09:09:39;28.10;35.93
64924;HTU21D;51436;44.692;39.214;2022-07-01T09:12:09;28.19;35.64
64924;HTU21D;51436;44.692;39.214;2022-07-01T09:14:35;28.27;36.24
64924;HTU21D;51436;44.692;39.214;2022-07-01T09:17:05;28.32;35.76
64924;HTU21D;51436;44.692;39.214;2022-07-01T09:19:37;28.40;35.45
64924;HTU21D;51436;44.692;39.214;2022-07-01T09:22:05;28.42;34.46
64924;HTU21D;51436;44.692;39.214;2022-07-01T09:24:35;28.40;34.11
64924;HTU21D;51436;44.692;39.214;2022-07-01T09:27:12;28.34;33.96
64924;HTU21D;51436;44.692;39.214;2022-07-01T09:29:52;28.34;34.05
64924;HTU21D;51436;44.692;39.214;2022-07-01T09:32:21;28.33;34.44
64924;HTU21D;51436;44.692;39.214;2022-07-01T09:34:50;28.40;34.01
64924;HTU21D;51436;44.692;39.214;2022-07-01T09:37:19;28.43;33.62
64924;HTU21D;51436;44.692;39.214;2022-07-01T09:39:54;28.46;33.96
64924;HTU21D;51436;44.692;39.214;2022-07-01T09:42:24;28.50;33.95
64924;HTU21D;51436;44.692;39.214;2022-07-01T09:45:03;28.53;33.80
64924;HTU21D;51436;44.692;39.214;2022-07-01T09:47:35;28.56;33.21
64924;HTU21D;51436;44.692;39.214;2022-07-01T09:50:04;28.57;32.86
64924;HTU21D;51436;44.692;39.214;2022-07-01T09:52:31;28.62;33.39
64924;HTU21D;51436;44.692;39.214;2022-07-01T09:54:59;28.70;33.42
64924;HTU21D;51436;44.692;39.214;2022-07-01T09:57:26;28.78;33.81
64924;HTU21D;51436;44.692;39.214;2022-07-01T09:59:53;28.79;33.02
64924;HTU21D;51436;44.692;39.214;2022-07-01T10:02:24;28.73;32.68
64924;HTU21D;51436;44.692;39.214;2022-07-01T10:05:17;28.68;33.29
64924;HTU21D;51436;44.692;39.214;2022-07-01T10:08:18;28.68;32.75
64924;HTU21D;51436;44.692;39.214;2022-07-01T10:11:06;28.77;33.89
64924;HTU21D;51436;44.692;39.214;2022-07-01T10:13:37;28.82;33.33
64924;HTU21D;51436;44.692;39.214;2022-07-01T10:16:04;28.84;32.88
64924;HTU21D;51436;44.692;39.214;2022-07-01T10:18:31;28.85;33.44
64924;HTU21D;51436;44.692;39.214;2022-07-01T10:20:58;28.89;32.74
64924;HTU21D;51436;44.692;39.214;2022-07-01T10:23:40;28.95;33.25
64924;HTU21D;51436;44.692;39.214;2022-07-01T10:26:07;28.94;33.02
64924;HTU21D;51436;44.692;39.214;2022-07-01T10:28:43;28.93;32.62
64924;HTU21D;51436;44.692;39.214;2022-07-01T10:31:16;28.93;32.51
64924;HTU21D;51436;44.692;39.214;2022-07-01T10:36:24;28.97;32.31
64924;HTU21D;51436;44.692;39.214;2022-07-01T10:41:31;29.02;32.33
64924;HTU21D;51436;44.692;39.214;2022-07-01T10:44:00;29.02;31.99
64924;HTU21D;51436;44.692;39.214;2022-07-01T10:46:38;29.02;32.35
64924;HTU21D;51436;44.692;39.214;2022-07-01T10:49:16;29.02;32.08
64924;HTU21D;51436;44.692;39.214;2022-07-01T10:51:50;29.05;32.51
64924;HTU21D;51436;44.692;39.214;2022-07-01T10:59:54;29.22;32.41
64924;HTU21D;51436;44.692;39.214;2022-07-01T11:02:23;29.22;32.45
64924;HTU21D;51436;44.692;39.214;2022-07-01T11:04:55;29.23;32.29
64924;HTU21D;51436;44.692;39.214;2022-07-01T11:07:28;29.24;32.46
64924;HTU21D;51436;44.692;39.214;2022-07-01T11:09:55;29.24;31.77
64924;HTU21D;51436;44.692;39.214;2022-07-01T11:12:23;29.27;31.70
64924;HTU21D;51436;44.692;39.214;2022-07-01T11:14:51;29.32;32.75
64924;HTU21D;51436;44.692;39.214;2022-07-01T11:17:24;29.36;32.14
64924;HTU21D;51436;44.692;39.214;2022-07-01T11:19:55;29.37;32.36
64924;HTU21D;51436;44.692;39.214;2022-07-01T11:22:26;29.36;31.90
64924;HTU21D;51436;44.692;39.214;2022-07-01T11:25:18;29.31;32.43
64924;HTU21D;51436;44.692;39.214;2022-07-01T11:27:47;29.35;32.57
64924;HTU21D;51436;44.692;39.214;2022-07-01T11:30:21;29.41;32.52
64924;HTU21D;51436;44.692;39.214;2022-07-01T11:32:50;29.38;32.65
64924;HTU21D;51436;44.692;39.214;2022-07-01T11:35:23;29.37;33.09
64924;HTU21D;51436;44.692;39.214;2022-07-01T11:38:13;29.36;32.73
64924;HTU21D;51436;44.692;39.214;2022-07-01T11:41:03;29.36;32.33
64924;HTU21D;51436;44.692;39.214;2022-07-01T11:43:39;29.36;32.25
64924;HTU21D;51436;44.692;39.214;2022-07-01T11:46:07;29.35;32.62
64924;HTU21D;51436;44.692;39.214;2022-07-01T11:48:38;29.36;32.28
64924;HTU21D;51436;44.692;39.214;2022-07-01T11:51:09;29.33;31.92
64924;HTU21D;51436;44.692;39.214;2022-07-01T11:53:46;29.35;32.15
64924;HTU21D;51436;44.692;39.214;2022-07-01T11:59:11;29.44;32.38
64924;HTU21D;51436;44.692;39.214;2022-07-01T12:02:05;29.45;32.45
64924;HTU21D;51436;44.692;39.214;2022-07-01T12:04:32;29.48;32.53
64924;HTU21D;51436;44.692;39.214;2022-07-01T12:06:59;29.50;31.94
64924;HTU21D;51436;44.692;39.214;2022-07-01T12:09:27;29.46;31.54
64924;HTU21D;51436;44.692;39.214;2022-07-01T12:11:54;29.45;31.94
64924;HTU21D;51436;44.692;39.214;2022-07-01T12:14:28;29.44;31.96
64924;HTU21D;51436;44.692;39.214;2022-07-01T12:16:59;29.42;31.18
64924;HTU21D;51436;44.692;39.214;2022-07-01T12:19:40;29.42;31.22
64924;HTU21D;51436;44.692;39.214;2022-07-01T12:22:15;29.45;31.29
64924;HTU21D;51436;44.692;39.214;2022-07-01T12:24:42;29.45;30.74
64924;HTU21D;51436;44.692;39.214;2022-07-01T12:27:09;29.48;31.06
64924;HTU21D;51436;44.692;39.214;2022-07-01T12:32:25;29.47;30.40
64924;HTU21D;51436;44.692;39.214;2022-07-01T12:34:56;29.47;30.10
64924;HTU21D;51436;44.692;39.214;2022-07-01T12:37:34;29.53;30.46
64924;HTU21D;51436;44.692;39.214;2022-07-01T12:40:02;29.57;29.87
64924;HTU21D;51436;44.692;39.214;2022-07-01T12:42:43;29.56;30.06
64924;HTU21D;51436;44.692;39.214;2022-07-01T12:45:12;29.57;29.55
64924;HTU21D;51436;44.692;39.214;2022-07-01T12:47:42;29.60;29.96
64924;HTU21D;51436;44.692;39.214;2022-07-01T12:52:39;29.57;29.68
64924;HTU21D;51436;44.692;39.214;2022-07-01T12:55:17;29.57;30.18
64924;HTU21D;51436;44.692;39.214;2022-07-01T12:57:53;29.59;30.16
64924;HTU21D;51436;44.692;39.214;2022-07-01T13:00:21;29.60;30.71
64924;HTU21D;51436;44.692;39.214;2022-07-01T13:02:51;29.59;30.74
64924;HTU21D;51436;44.692;39.214;2022-07-01T13:05:18;29.57;30.73
64924;HTU21D;51436;44.692;39.214;2022-07-01T13:07:45;29.53;30.91
64924;HTU21D;51436;44.692;39.214;2022-07-01T13:10:13;29.51;30.21
64924;HTU21D;51436;44.692;39.214;2022-07-01T13:12:41;29.50;30.58
64924;HTU21D;51436;44.692;39.214;2022-07-01T13:15:07;29.50;30.36
64924;HTU21D;51436;44.692;39.214;2022-07-01T13:17:34;29.50;30.91
64924;HTU21D;51436;44.692;39.214;2022-07-01T13:20:20;29.48;30.89
64924;HTU21D;51436;44.692;39.214;2022-07-01T13:22:47;29.47;30.86
64924;HTU21D;51436;44.692;39.214;2022-07-01T13:25:22;29.48;31.17
64924;HTU21D;51436;44.692;39.214;2022-07-01T13:27:49;29.47;31.38
64924;HTU21D;51436;44.692;39.214;2022-07-01T13:30:18;29.46;31.45
64924;HTU21D;51436;44.692;39.214;2022-07-01T13:32:45;29.48;31.10
64924;HTU21D;51436;44.692;39.214;2022-07-01T13:35:13;29.49;31.70
64924;HTU21D;51436;44.692;39.214;2022-07-01T13:37:56;29.47;31.92
64924;HTU21D;51436;44.692;39.214;2022-07-01T13:40:22;29.46;31.48
64924;HTU21D;51436;44.692;39.214;2022-07-01T13:42:49;29.45;32.07
64924;HTU21D;51436;44.692;39.214;2022-07-01T13:45:15;29.48;31.76
64924;HTU21D;51436;44.692;39.214;2022-07-01T13:47:42;29.45;32.08
64924;HTU21D;51436;44.692;39.214;2022-07-01T13:50:09;29.45;31.83
64924;HTU21D;51436;44.692;39.214;2022-07-01T13:52:36;29.43;32.01
64924;HTU21D;51436;44.692;39.214;2022-07-01T13:55:04;29.42;32.31
64924;HTU21D;51436;44.692;39.214;2022-07-01T13:57:31;29.43;32.36
64924;HTU21D;51436;44.692;39.214;2022-07-01T13:59:57;29.42;32.86
64924;HTU21D;51436;44.692;39.214;2022-07-01T14:02:24;29.43;32.33
64924;HTU21D;51436;44.692;39.214;2022-07-01T14:04:55;29.41;31.91
64924;HTU21D;51436;44.692;39.214;2022-07-01T14:07:22;29.37;31.69
64924;HTU21D;51436;44.692;39.214;2022-07-01T14:09:49;29.38;31.93
64924;HTU21D;51436;44.692;39.214;2022-07-01T14:12:15;29.38;32.48
64924;HTU21D;51436;44.692;39.214;2022-07-01T14:14:42;29.39;32.70
64924;HTU21D;51436;44.692;39.214;2022-07-01T14:17:09;29.37;32.57
64924;HTU21D;51436;44.692;39.214;2022-07-01T14:19:36;29.34;32.00
64924;HTU21D;51436;44.692;39.214;2022-07-01T14:22:03;29.31;31.99
64924;HTU21D;51436;44.692;39.214;2022-07-01T14:24:29;29.29;32.58
64924;HTU21D;51436;44.692;39.214;2022-07-01T14:26:56;29.28;32.57
64924;HTU21D;51436;44.692;39.214;2022-07-01T14:29:22;29.26;32.41
64924;HTU21D;51436;44.692;39.214;2022-07-01T14:31:49;29.26;32.43
64924;HTU21D;51436;44.692;39.214;2022-07-01T14:34:17;29.23;32.72
64924;HTU21D;51436;44.692;39.214;2022-07-01T14:36:44;29.21;33.12
64924;HTU21D;51436;44.692;39.214;2022-07-01T14:39:10;29.19;33.00
64924;HTU21D;51436;44.692;39.214;2022-07-01T14:41:37;29.15;33.15
64924;HTU21D;51436;44.692;39.214;2022-07-01T14:44:04;29.13;33.38
64924;HTU21D;51436;44.692;39.214;2022-07-01T14:46:30;29.11;33.51
64924;HTU21D;51436;44.692;39.214;2022-07-01T14:48:57;29.09;33.79
64924;HTU21D;51436;44.692;39.214;2022-07-01T14:51:23;29.07;33.14
64924;HTU21D;51436;44.692;39.214;2022-07-01T14:53:50;29.06;33.39
64924;HTU21D;51436;44.692;39.214;2022-07-01T14:56:16;29.06;33.74
64924;HTU21D;51436;44.692;39.214;2022-07-01T14:58:43;29.03;33.44
64924;HTU21D;51436;44.692;39.214;2022-07-01T15:01:10;29.01;33.47
64924;HTU21D;51436;44.692;39.214;2022-07-01T15:03:37;29.01;33.89
64924;HTU21D;51436;44.692;39.214;2022-07-01T15:06:04;28.98;34.02
64924;HTU21D;51436;44.692;39.214;2022-07-01T15:08:30;28.95;34.12
64924;HTU21D;51436;44.692;39.214;2022-07-01T15:10:57;28.93;33.65
64924;HTU21D;51436;44.692;39.214;2022-07-01T15:13:32;28.91;34.08
64924;HTU21D;51436;44.692;39.214;2022-07-01T15:16:01;28.89;34.51
64924;HTU21D;51436;44.692;39.214;2022-07-01T15:18:28;28.86;34.57
64924;HTU21D;51436;44.692;39.214;2022-07-01T15:20:55;28.84;35.18
64924;HTU21D;51436;44.692;39.214;2022-07-01T15:23:22;28.82;35.63
64924;HTU21D;51436;44.692;39.214;2022-07-01T15:25:48;28.75;36.22
64924;HTU21D;51436;44.692;39.214;2022-07-01T15:28:15;28.71;36.92
64924;HTU21D;51436;44.692;39.214;2022-07-01T15:30:42;28.65;37.68
64924;HTU21D;51436;44.692;39.214;2022-07-01T15:33:09;28.60;38.40
64924;HTU21D;51436;44.692;39.214;2022-07-01T15:35:35;28.56;39.11
64924;HTU21D;51436;44.692;39.214;2022-07-01T15:38:02;28.52;39.95